sensor_id;sensor_type;location;lat;lon;timestamp;P1;durP1;ratioP1;P2;durP2;ratioP2
83562;SDS011;73535;52.500;13.482;2024-01-15T00:00:07;11.73;;;6.90;;
83562;SDS011;73535;52.500;13.482;2024-01-15T00:02:33;11.65;;;7.30;;
83562;SDS011;73535;52.500;13.482;2024-01-15T00:04:59;9.80;;;6.25;;
83562;SDS011;73535;52.500;13.482;2024-01-15T00:07:24;9.48;;;6.30;;
83562;SDS011;73535;52.500;13.482;2024-01-15T00:09:49;12.15;;;6.70;;
83562;SDS011;73535;52.500;13.482;2024-01-15T00:12:14;10.18;;;7.00;;
83562;SDS011;73535;52.500;13.482;2024-01-15T00:14:40;10.48;;;7.05;;
83562;SDS011;73535;52.500;13.482;2024-01-15T00:17:05;10.70;;;7.35;;
83562;SDS011;73535;52.500;13.482;2024-01-15T00:19:30;11.55;;;7.00;;
83562;SDS011;73535;52.500;13.482;2024-01-15T00:24:22;10.27;;;6.83;;
83562;SDS011;73535;52.500;13.482;2024-01-15T00:26:47;11.30;;;7.03;;
83562;SDS011;73535;52.500;13.482;2024-01-15T00:29:13;10.43;;;7.80;;
83562;SDS011;73535;52.500;13.482;2024-01-15T00:31:38;10.75;;;6.68;;
83562;SDS011;73535;52.500;13.482;2024-01-15T00:34:03;9.90;;;6.18;;
83562;SDS011;73535;52.500;13.482;2024-01-15T00:36:28;11.32;;;7.07;;
83562;SDS011;73535;52.500;13.482;2024-01-15T00:38:54;10.75;;;6.45;;
83562;SDS011;73535;52.500;13.482;2024-01-15T00:41:19;11.05;;;6.75;;
83562;SDS011;73535;52.500;13.482;2024-01-15T00:43:45;9.85;;;7.35;;
83562;SDS011;73535;52.500;13.482;2024-01-15T00:46:10;10.77;;;7.28;;
83562;SDS011;73535;52.500;13.482;2024-01-15T00:48:36;10.82;;;6.88;;
83562;SDS011;73535;52.500;13.482;2024-01-15T00:51:02;8.82;;;6.70;;
83562;SDS011;73535;52.500;13.482;2024-01-15T00:53:27;12.88;;;7.45;;
83562;SDS011;73535;52.500;13.482;2024-01-15T00:55:52;11.32;;;6.97;;
83562;SDS011;73535;52.500;13.482;2024-01-15T00:58:18;11.50;;;7.45;;
83562;SDS011;73535;52.500;13.482;2024-01-15T01:00:44;11.05;;;6.90;;
83562;SDS011;73535;52.500;13.482;2024-01-15T01:03:09;10.18;;;7.22;;
83562;SDS011;73535;52.500;13.482;2024-01-15T01:05:34;11.65;;;7.05;;
83562;SDS011;73535;52.500;13.482;2024-01-15T01:07:59;11.77;;;6.53;;
83562;SDS011;73535;52.500;13.482;2024-01-15T01:10:25;10.25;;;7.13;;
83562;SDS011;73535;52.500;13.482;2024-01-15T01:12:50;9.95;;;6.95;;
83562;SDS011;73535;52.500;13.482;2024-01-15T01:15:15;12.00;;;6.78;;
83562;SDS011;73535;52.500;13.482;2024-01-15T01:17:40;10.18;;;6.63;;
83562;SDS011;73535;52.500;13.482;2024-01-15T01:20:06;13.73;;;7.35;;
83562;SDS011;73535;52.500;13.482;2024-01-15T01:22:33;11.25;;;6.88;;
83562;SDS011;73535;52.500;13.482;2024-01-15T01:24:58;12.52;;;7.35;;
83562;SDS011;73535;52.500;13.482;2024-01-15T01:27:23;13.98;;;8.40;;
83562;SDS011;73535;52.500;13.482;2024-01-15T01:29:49;13.70;;;7.35;;
83562;SDS011;73535;52.500;13.482;2024-01-15T01:32:14;13.38;;;8.10;;
83562;SDS011;73535;52.500;13.482;2024-01-15T01:34:40;10.15;;;6.65;;
83562;SDS011;73535;52.500;13.482;2024-01-15T01:37:09;11.30;;;7.40;;
83562;SDS011;73535;52.500;13.482;2024-01-15T01:39:34;13.00;;;7.05;;
83562;SDS011;73535;52.500;13.482;2024-01-15T01:42:00;11.85;;;7.53;;
83562;SDS011;73535;52.500;13.482;2024-01-15T01:44:25;11.60;;;7.55;;
83562;SDS011;73535;52.500;13.482;2024-01-15T01:46:50;12.20;;;7.32;;
83562;SDS011;73535;52.500;13.482;2024-01-15T01:49:15;11.30;;;7.22;;
83562;SDS011;73535;52.500;13.482;2024-01-15T01:51:42;11.57;;;7.45;;
83562;SDS011;73535;52.500;13.482;2024-01-15T01:54:07;12.43;;;7.03;;
83562;SDS011;73535;52.500;13.482;2024-01-15T01:56:34;14.90;;;7.78;;
83562;SDS011;73535;52.500;13.482;2024-01-15T01:59:00;14.07;;;8.25;;
83562;SDS011;73535;52.500;13.482;2024-01-15T02:01:26;12.68;;;7.43;;
83562;SDS011;73535;52.500;13.482;2024-01-15T02:03:51;14.00;;;8.85;;
83562;SDS011;73535;52.500;13.482;2024-01-15T02:06:16;15.23;;;8.23;;
83562;SDS011;73535;52.500;13.482;2024-01-15T02:08:43;14.35;;;8.95;;
83562;SDS011;73535;52.500;13.482;2024-01-15T02:11:08;12.00;;;7.75;;
83562;SDS011;73535;52.500;13.482;2024-01-15T02:13:34;13.35;;;8.93;;
83562;SDS011;73535;52.500;13.482;2024-01-15T02:15:59;11.75;;;7.05;;
83562;SDS011;73535;52.500;13.482;2024-01-15T02:18:24;13.40;;;8.73;;
83562;SDS011;73535;52.500;13.482;2024-01-15T02:20:49;12.15;;;7.28;;
83562;SDS011;73535;52.500;13.482;2024-01-15T02:23:15;12.75;;;6.57;;
83562;SDS011;73535;52.500;13.482;2024-01-15T02:25:44;11.20;;;7.38;;
83562;SDS011;73535;52.500;13.482;2024-01-15T02:28:14;11.25;;;6.95;;
83562;SDS011;73535;52.500;13.482;2024-01-15T02:30:41;12.20;;;6.85;;
83562;SDS011;73535;52.500;13.482;2024-01-15T02:33:07;11.60;;;6.07;;
83562;SDS011;73535;52.500;13.482;2024-01-15T02:35:33;10.23;;;6.32;;
83562;SDS011;73535;52.500;13.482;2024-01-15T02:38:01;9.10;;;5.60;;
83562;SDS011;73535;52.500;13.482;2024-01-15T02:40:27;8.23;;;5.10;;
83562;SDS011;73535;52.500;13.482;2024-01-15T02:42:52;10.25;;;5.38;;
83562;SDS011;73535;52.500;13.482;2024-01-15T02:45:18;8.90;;;5.80;;
83562;SDS011;73535;52.500;13.482;2024-01-15T02:47:43;9.55;;;5.88;;
83562;SDS011;73535;52.500;13.482;2024-01-15T02:50:08;9.70;;;5.95;;
83562;SDS011;73535;52.500;13.482;2024-01-15T02:52:33;11.40;;;5.95;;
83562;SDS011;73535;52.500;13.482;2024-01-15T02:54:59;9.80;;;5.40;;
83562;SDS011;73535;52.500;13.482;2024-01-15T02:57:24;8.75;;;5.88;;
83562;SDS011;73535;52.500;13.482;2024-01-15T02:59:49;8.63;;;5.60;;
83562;SDS011;73535;52.500;13.482;2024-01-15T03:02:14;8.88;;;5.18;;
83562;SDS011;73535;52.500;13.482;2024-01-15T03:04:43;8.68;;;5.53;;
83562;SDS011;73535;52.500;13.482;2024-01-15T03:07:09;7.13;;;4.35;;
83562;SDS011;73535;52.500;13.482;2024-01-15T03:09:34;8.18;;;5.00;;
83562;SDS011;73535;52.500;13.482;2024-01-15T03:11:59;9.50;;;6.30;;
83562;SDS011;73535;52.500;13.482;2024-01-15T03:14:24;9.27;;;5.88;;
83562;SDS011;73535;52.500;13.482;2024-01-15T03:16:51;11.50;;;6.07;;
83562;SDS011;73535;52.500;13.482;2024-01-15T03:19:16;8.80;;;5.10;;
83562;SDS011;73535;52.500;13.482;2024-01-15T03:21:41;10.90;;;5.55;;
83562;SDS011;73535;52.500;13.482;2024-01-15T03:24:06;7.70;;;4.85;;
83562;SDS011;73535;52.500;13.482;2024-01-15T03:26:32;8.85;;;4.72;;
83562;SDS011;73535;52.500;13.482;2024-01-15T03:28:57;9.93;;;5.07;;
83562;SDS011;73535;52.500;13.482;2024-01-15T03:31:22;7.57;;;5.05;;
83562;SDS011;73535;52.500;13.482;2024-01-15T03:33:47;8.90;;;5.20;;
83562;SDS011;73535;52.500;13.482;2024-01-15T03:36:13;10.65;;;4.65;;
83562;SDS011;73535;52.500;13.482;2024-01-15T03:38:41;8.48;;;4.72;;
83562;SDS011;73535;52.500;13.482;2024-01-15T03:41:07;10.50;;;5.40;;
83562;SDS011;73535;52.500;13.482;2024-01-15T03:43:32;10.27;;;5.15;;
83562;SDS011;73535;52.500;13.482;2024-01-15T03:45:57;9.75;;;5.10;;
83562;SDS011;73535;52.500;13.482;2024-01-15T03:48:23;8.80;;;4.13;;
83562;SDS011;73535;52.500;13.482;2024-01-15T03:50:48;9.30;;;4.72;;
83562;SDS011;73535;52.500;13.482;2024-01-15T03:53:13;9.35;;;4.75;;
83562;SDS011;73535;52.500;13.482;2024-01-15T03:55:38;9.02;;;4.80;;
83562;SDS011;73535;52.500;13.482;2024-01-15T03:58:04;8.00;;;4.35;;
83562;SDS011;73535;52.500;13.482;2024-01-15T04:00:29;8.25;;;4.97;;
83562;SDS011;73535;52.500;13.482;2024-01-15T04:02:54;10.07;;;6.05;;
83562;SDS011;73535;52.500;13.482;2024-01-15T04:05:19;8.45;;;4.07;;
83562;SDS011;73535;52.500;13.482;2024-01-15T04:07:45;7.88;;;4.07;;
83562;SDS011;73535;52.500;13.482;2024-01-15T04:10:10;6.70;;;3.97;;
83562;SDS011;73535;52.500;13.482;2024-01-15T04:12:35;8.93;;;3.72;;
83562;SDS011;73535;52.500;13.482;2024-01-15T04:15:00;9.00;;;3.90;;
83562;SDS011;73535;52.500;13.482;2024-01-15T04:17:26;6.75;;;3.15;;
83562;SDS011;73535;52.500;13.482;2024-01-15T04:19:52;9.00;;;5.15;;
83562;SDS011;73535;52.500;13.482;2024-01-15T04:22:17;9.13;;;4.40;;
83562;SDS011;73535;52.500;13.482;2024-01-15T04:24:42;7.55;;;3.15;;
83562;SDS011;73535;52.500;13.482;2024-01-15T04:27:08;7.22;;;3.95;;
83562;SDS011;73535;52.500;13.482;2024-01-15T04:29:33;7.35;;;3.72;;
83562;SDS011;73535;52.500;13.482;2024-01-15T04:31:58;9.48;;;4.05;;
83562;SDS011;73535;52.500;13.482;2024-01-15T04:34:23;7.35;;;3.10;;
83562;SDS011;73535;52.500;13.482;2024-01-15T04:36:49;6.03;;;3.40;;
83562;SDS011;73535;52.500;13.482;2024-01-15T04:39:14;9.75;;;4.80;;
83562;SDS011;73535;52.500;13.482;2024-01-15T04:41:39;6.35;;;3.75;;
83562;SDS011;73535;52.500;13.482;2024-01-15T04:44:04;6.18;;;3.05;;
83562;SDS011;73535;52.500;13.482;2024-01-15T04:46:29;6.45;;;2.97;;
83562;SDS011;73535;52.500;13.482;2024-01-15T04:48:55;8.52;;;3.65;;
83562;SDS011;73535;52.500;13.482;2024-01-15T04:51:20;6.82;;;3.00;;
83562;SDS011;73535;52.500;13.482;2024-01-15T04:53:45;8.35;;;3.25;;
83562;SDS011;73535;52.500;13.482;2024-01-15T04:56:10;7.65;;;2.85;;
83562;SDS011;73535;52.500;13.482;2024-01-15T04:58:36;8.35;;;2.90;;
83562;SDS011;73535;52.500;13.482;2024-01-15T05:01:01;8.85;;;3.30;;
83562;SDS011;73535;52.500;13.482;2024-01-15T05:03:26;7.40;;;2.72;;
83562;SDS011;73535;52.500;13.482;2024-01-15T05:05:51;7.75;;;2.78;;
83562;SDS011;73535;52.500;13.482;2024-01-15T05:08:17;6.35;;;2.30;;
83562;SDS011;73535;52.500;13.482;2024-01-15T05:10:42;5.72;;;2.25;;
83562;SDS011;73535;52.500;13.482;2024-01-15T05:13:07;5.60;;;1.90;;
83562;SDS011;73535;52.500;13.482;2024-01-15T05:15:32;4.32;;;2.10;;
83562;SDS011;73535;52.500;13.482;2024-01-15T05:17:58;9.60;;;2.20;;
83562;SDS011;73535;52.500;13.482;2024-01-15T05:20:23;6.72;;;2.28;;
83562;SDS011;73535;52.500;13.482;2024-01-15T05:22:48;6.20;;;2.08;;
83562;SDS011;73535;52.500;13.482;2024-01-15T05:25:13;8.00;;;2.47;;
83562;SDS011;73535;52.500;13.482;2024-01-15T05:27:38;8.23;;;2.70;;
83562;SDS011;73535;52.500;13.482;2024-01-15T05:30:04;7.28;;;2.17;;
83562;SDS011;73535;52.500;13.482;2024-01-15T05:32:29;7.30;;;2.40;;
83562;SDS011;73535;52.500;13.482;2024-01-15T05:34:55;4.57;;;2.53;;
83562;SDS011;73535;52.500;13.482;2024-01-15T05:37:20;5.30;;;2.20;;
83562;SDS011;73535;52.500;13.482;2024-01-15T05:39:45;8.50;;;2.40;;
83562;SDS011;73535;52.500;13.482;2024-01-15T05:42:10;8.70;;;1.90;;
83562;SDS011;73535;52.500;13.482;2024-01-15T05:44:36;6.95;;;2.45;;
83562;SDS011;73535;52.500;13.482;2024-01-15T05:47:01;5.30;;;2.10;;
83562;SDS011;73535;52.500;13.482;2024-01-15T05:49:26;6.32;;;2.25;;
83562;SDS011;73535;52.500;13.482;2024-01-15T05:51:51;6.10;;;1.92;;
83562;SDS011;73535;52.500;13.482;2024-01-15T05:54:18;4.97;;;1.95;;
83562;SDS011;73535;52.500;13.482;2024-01-15T05:56:44;5.85;;;2.00;;
83562;SDS011;73535;52.500;13.482;2024-01-15T05:59:09;6.15;;;1.88;;
83562;SDS011;73535;52.500;13.482;2024-01-15T06:01:35;8.30;;;2.67;;
83562;SDS011;73535;52.500;13.482;2024-01-15T06:04:00;9.07;;;2.42;;
83562;SDS011;73535;52.500;13.482;2024-01-15T06:06:25;8.43;;;2.35;;
83562;SDS011;73535;52.500;13.482;2024-01-15T06:08:50;4.43;;;1.85;;
83562;SDS011;73535;52.500;13.482;2024-01-15T06:11:16;5.93;;;1.65;;
83562;SDS011;73535;52.500;13.482;2024-01-15T06:13:41;5.72;;;2.22;;
83562;SDS011;73535;52.500;13.482;2024-01-15T06:16:13;6.93;;;2.13;;
83562;SDS011;73535;52.500;13.482;2024-01-15T06:18:39;6.88;;;2.30;;
83562;SDS011;73535;52.500;13.482;2024-01-15T06:21:05;3.42;;;1.77;;
83562;SDS011;73535;52.500;13.482;2024-01-15T06:23:30;5.68;;;2.20;;
83562;SDS011;73535;52.500;13.482;2024-01-15T06:25:55;6.75;;;1.80;;
83562;SDS011;73535;52.500;13.482;2024-01-15T06:28:20;7.45;;;1.90;;
83562;SDS011;73535;52.500;13.482;2024-01-15T06:30:46;6.55;;;2.00;;
83562;SDS011;73535;52.500;13.482;2024-01-15T06:33:11;6.75;;;1.75;;
83562;SDS011;73535;52.500;13.482;2024-01-15T06:35:36;10.43;;;2.05;;
83562;SDS011;73535;52.500;13.482;2024-01-15T06:38:01;4.40;;;1.45;;
83562;SDS011;73535;52.500;13.482;2024-01-15T06:40:27;7.10;;;1.83;;
83562;SDS011;73535;52.500;13.482;2024-01-15T06:42:52;6.20;;;1.90;;
83562;SDS011;73535;52.500;13.482;2024-01-15T06:45:17;5.30;;;1.58;;
83562;SDS011;73535;52.500;13.482;2024-01-15T06:47:42;7.03;;;1.80;;
83562;SDS011;73535;52.500;13.482;2024-01-15T06:50:08;7.90;;;2.08;;
83562;SDS011;73535;52.500;13.482;2024-01-15T06:52:33;5.43;;;1.92;;
83562;SDS011;73535;52.500;13.482;2024-01-15T06:54:58;5.63;;;1.20;;
83562;SDS011;73535;52.500;13.482;2024-01-15T06:57:23;4.60;;;1.33;;
83562;SDS011;73535;52.500;13.482;2024-01-15T06:59:49;4.18;;;1.38;;
83562;SDS011;73535;52.500;13.482;2024-01-15T07:02:14;4.88;;;1.40;;
83562;SDS011;73535;52.500;13.482;2024-01-15T07:04:39;8.38;;;1.60;;
83562;SDS011;73535;52.500;13.482;2024-01-15T07:07:04;7.03;;;1.90;;
83562;SDS011;73535;52.500;13.482;2024-01-15T07:09:29;5.70;;;1.42;;
83562;SDS011;73535;52.500;13.482;2024-01-15T07:11:55;6.40;;;1.27;;
83562;SDS011;73535;52.500;13.482;2024-01-15T07:14:22;5.80;;;1.70;;
83562;SDS011;73535;52.500;13.482;2024-01-15T07:16:47;6.75;;;2.13;;
83562;SDS011;73535;52.500;13.482;2024-01-15T07:19:13;3.20;;;1.30;;
83562;SDS011;73535;52.500;13.482;2024-01-15T07:21:38;9.30;;;1.50;;
83562;SDS011;73535;52.500;13.482;2024-01-15T07:26:30;6.73;;;1.50;;
83562;SDS011;73535;52.500;13.482;2024-01-15T07:28:55;7.57;;;1.90;;
83562;SDS011;73535;52.500;13.482;2024-01-15T07:31:20;10.05;;;2.08;;
83562;SDS011;73535;52.500;13.482;2024-01-15T07:33:46;5.75;;;1.50;;
83562;SDS011;73535;52.500;13.482;2024-01-15T07:36:11;7.85;;;1.83;;
83562;SDS011;73535;52.500;13.482;2024-01-15T07:38:36;7.25;;;1.52;;
83562;SDS011;73535;52.500;13.482;2024-01-15T07:41:02;10.82;;;1.75;;
83562;SDS011;73535;52.500;13.482;2024-01-15T07:43:28;7.88;;;1.80;;
83562;SDS011;73535;52.500;13.482;2024-01-15T07:45:54;7.57;;;1.85;;
83562;SDS011;73535;52.500;13.482;2024-01-15T07:48:19;12.45;;;2.75;;
83562;SDS011;73535;52.500;13.482;2024-01-15T07:50:45;5.85;;;1.60;;
83562;SDS011;73535;52.500;13.482;2024-01-15T07:53:10;6.68;;;1.65;;
83562;SDS011;73535;52.500;13.482;2024-01-15T07:55:35;6.40;;;1.58;;
83562;SDS011;73535;52.500;13.482;2024-01-15T07:58:01;9.57;;;1.23;;
83562;SDS011;73535;52.500;13.482;2024-01-15T08:00:26;5.60;;;1.23;;
83562;SDS011;73535;52.500;13.482;2024-01-15T08:02:53;5.15;;;1.50;;
83562;SDS011;73535;52.500;13.482;2024-01-15T08:05:18;7.57;;;2.60;;
83562;SDS011;73535;52.500;13.482;2024-01-15T08:07:44;7.78;;;1.98;;
83562;SDS011;73535;52.500;13.482;2024-01-15T08:10:09;7.90;;;1.92;;
83562;SDS011;73535;52.500;13.482;2024-01-15T08:12:34;7.63;;;1.70;;
83562;SDS011;73535;52.500;13.482;2024-01-15T08:14:59;6.45;;;1.98;;
83562;SDS011;73535;52.500;13.482;2024-01-15T08:17:25;6.75;;;1.77;;
83562;SDS011;73535;52.500;13.482;2024-01-15T08:19:53;7.03;;;1.80;;
83562;SDS011;73535;52.500;13.482;2024-01-15T08:22:19;6.53;;;1.88;;
83562;SDS011;73535;52.500;13.482;2024-01-15T08:24:45;4.47;;;1.70;;
83562;SDS011;73535;52.500;13.482;2024-01-15T08:27:10;7.95;;;1.65;;
83562;SDS011;73535;52.500;13.482;2024-01-15T08:29:35;7.28;;;1.52;;
83562;SDS011;73535;52.500;13.482;2024-01-15T08:32:00;7.78;;;2.13;;
83562;SDS011;73535;52.500;13.482;2024-01-15T08:34:26;4.60;;;1.27;;
83562;SDS011;73535;52.500;13.482;2024-01-15T08:36:51;7.55;;;1.50;;
83562;SDS011;73535;52.500;13.482;2024-01-15T08:39:16;6.80;;;1.70;;
83562;SDS011;73535;52.500;13.482;2024-01-15T08:41:43;7.60;;;1.55;;
83562;SDS011;73535;52.500;13.482;2024-01-15T08:44:08;5.70;;;1.90;;
83562;SDS011;73535;52.500;13.482;2024-01-15T08:46:33;7.40;;;1.67;;
83562;SDS011;73535;52.500;13.482;2024-01-15T08:48:59;5.63;;;1.48;;
83562;SDS011;73535;52.500;13.482;2024-01-15T08:51:24;6.03;;;1.77;;
83562;SDS011;73535;52.500;13.482;2024-01-15T08:53:49;4.25;;;1.40;;
83562;SDS011;73535;52.500;13.482;2024-01-15T08:56:14;4.82;;;1.35;;
83562;SDS011;73535;52.500;13.482;2024-01-15T08:58:39;7.13;;;1.60;;
83562;SDS011;73535;52.500;13.482;2024-01-15T09:01:05;6.43;;;1.55;;
83562;SDS011;73535;52.500;13.482;2024-01-15T09:03:30;5.70;;;1.40;;
83562;SDS011;73535;52.500;13.482;2024-01-15T09:05:55;5.25;;;1.40;;
83562;SDS011;73535;52.500;13.482;2024-01-15T09:08:21;10.02;;;1.75;;
83562;SDS011;73535;52.500;13.482;2024-01-15T09:10:46;5.72;;;1.55;;
83562;SDS011;73535;52.500;13.482;2024-01-15T09:13:11;6.43;;;1.25;;
83562;SDS011;73535;52.500;13.482;2024-01-15T09:15:36;11.48;;;1.92;;
83562;SDS011;73535;52.500;13.482;2024-01-15T09:18:02;5.35;;;1.85;;
83562;SDS011;73535;52.500;13.482;2024-01-15T09:20:27;4.60;;;1.63;;
83562;SDS011;73535;52.500;13.482;2024-01-15T09:22:52;7.57;;;1.92;;
83562;SDS011;73535;52.500;13.482;2024-01-15T09:25:18;8.60;;;3.30;;
83562;SDS011;73535;52.500;13.482;2024-01-15T09:27:44;8.05;;;1.73;;
83562;SDS011;73535;52.500;13.482;2024-01-15T09:30:09;7.03;;;2.10;;
83562;SDS011;73535;52.500;13.482;2024-01-15T09:32:34;6.15;;;2.03;;
83562;SDS011;73535;52.500;13.482;2024-01-15T09:35:00;8.35;;;1.45;;
83562;SDS011;73535;52.500;13.482;2024-01-15T09:37:25;5.28;;;1.63;;
83562;SDS011;73535;52.500;13.482;2024-01-15T09:39:50;8.68;;;2.00;;
83562;SDS011;73535;52.500;13.482;2024-01-15T09:42:15;6.47;;;1.65;;
83562;SDS011;73535;52.500;13.482;2024-01-15T09:44:41;5.70;;;1.50;;
83562;SDS011;73535;52.500;13.482;2024-01-15T09:47:06;4.80;;;1.73;;
83562;SDS011;73535;52.500;13.482;2024-01-15T09:49:32;4.90;;;1.20;;
83562;SDS011;73535;52.500;13.482;2024-01-15T09:51:58;3.92;;;1.55;;
83562;SDS011;73535;52.500;13.482;2024-01-15T09:54:23;7.22;;;1.73;;
83562;SDS011;73535;52.500;13.482;2024-01-15T09:56:48;3.92;;;1.48;;
83562;SDS011;73535;52.500;13.482;2024-01-15T09:59:17;6.45;;;1.70;;
83562;SDS011;73535;52.500;13.482;2024-01-15T10:01:43;4.22;;;1.98;;
83562;SDS011;73535;52.500;13.482;2024-01-15T10:04:13;4.70;;;1.20;;
83562;SDS011;73535;52.500;13.482;2024-01-15T10:06:39;5.35;;;1.60;;
83562;SDS011;73535;52.500;13.482;2024-01-15T10:09:10;3.53;;;1.15;;
83562;SDS011;73535;52.500;13.482;2024-01-15T10:11:42;3.83;;;0.98;;
83562;SDS011;73535;52.500;13.482;2024-01-15T10:14:11;3.65;;;1.20;;
83562;SDS011;73535;52.500;13.482;2024-01-15T10:16:37;4.03;;;1.30;;
83562;SDS011;73535;52.500;13.482;2024-01-15T10:19:03;4.57;;;1.20;;
83562;SDS011;73535;52.500;13.482;2024-01-15T10:21:28;5.20;;;1.10;;
83562;SDS011;73535;52.500;13.482;2024-01-15T10:23:57;5.03;;;1.85;;
83562;SDS011;73535;52.500;13.482;2024-01-15T10:26:25;6.18;;;1.85;;
83562;SDS011;73535;52.500;13.482;2024-01-15T10:28:51;4.25;;;1.42;;
83562;SDS011;73535;52.500;13.482;2024-01-15T10:31:17;4.20;;;1.50;;
83562;SDS011;73535;52.500;13.482;2024-01-15T10:33:44;4.07;;;1.30;;
83562;SDS011;73535;52.500;13.482;2024-01-15T10:36:09;5.82;;;1.73;;
83562;SDS011;73535;52.500;13.482;2024-01-15T10:38:35;5.82;;;1.73;;
83562;SDS011;73535;52.500;13.482;2024-01-15T10:41:01;4.45;;;1.42;;
83562;SDS011;73535;52.500;13.482;2024-01-15T10:43:26;5.20;;;1.48;;
83562;SDS011;73535;52.500;13.482;2024-01-15T10:45:51;5.18;;;1.77;;
83562;SDS011;73535;52.500;13.482;2024-01-15T10:48:18;4.10;;;1.40;;
83562;SDS011;73535;52.500;13.482;2024-01-15T10:50:44;3.50;;;1.33;;
83562;SDS011;73535;52.500;13.482;2024-01-15T10:53:11;3.05;;;1.13;;
83562;SDS011;73535;52.500;13.482;2024-01-15T10:55:38;5.32;;;1.80;;
83562;SDS011;73535;52.500;13.482;2024-01-15T10:58:06;6.07;;;1.45;;
83562;SDS011;73535;52.500;13.482;2024-01-15T11:00:33;5.45;;;1.52;;
83562;SDS011;73535;52.500;13.482;2024-01-15T11:03:02;3.65;;;1.20;;
83562;SDS011;73535;52.500;13.482;2024-01-15T11:05:32;4.45;;;1.35;;
83562;SDS011;73535;52.500;13.482;2024-01-15T11:07:58;4.03;;;1.38;;
83562;SDS011;73535;52.500;13.482;2024-01-15T11:10:37;2.30;;;1.10;;
83562;SDS011;73535;52.500;13.482;2024-01-15T11:13:15;2.85;;;0.90;;
83562;SDS011;73535;52.500;13.482;2024-01-15T11:15:55;3.97;;;1.38;;
83562;SDS011;73535;52.500;13.482;2024-01-15T11:18:22;2.35;;;0.80;;
83562;SDS011;73535;52.500;13.482;2024-01-15T11:23:47;1.48;;;0.98;;
83562;SDS011;73535;52.500;13.482;2024-01-15T11:26:26;5.15;;;0.90;;
83562;SDS011;73535;52.500;13.482;2024-01-15T11:28:53;3.38;;;1.20;;
83562;SDS011;73535;52.500;13.482;2024-01-15T11:32:07;1.90;;;1.05;;
83562;SDS011;73535;52.500;13.482;2024-01-15T11:34:08;2.65;;;1.00;;
83562;SDS011;73535;52.500;13.482;2024-01-15T11:41:51;3.72;;;0.90;;
83562;SDS011;73535;52.500;13.482;2024-01-15T11:44:17;3.83;;;1.10;;
83562;SDS011;73535;52.500;13.482;2024-01-15T11:46:43;2.05;;;0.95;;
83562;SDS011;73535;52.500;13.482;2024-01-15T11:49:26;2.05;;;0.90;;
83562;SDS011;73535;52.500;13.482;2024-01-15T11:52:18;2.53;;;1.10;;
83562;SDS011;73535;52.500;13.482;2024-01-15T11:54:48;2.03;;;1.10;;
83562;SDS011;73535;52.500;13.482;2024-01-15T11:57:40;3.95;;;1.30;;
83562;SDS011;73535;52.500;13.482;2024-01-15T12:00:08;6.05;;;1.58;;
83562;SDS011;73535;52.500;13.482;2024-01-15T12:02:35;3.13;;;1.63;;
83562;SDS011;73535;52.500;13.482;2024-01-15T12:05:00;4.05;;;1.58;;
83562;SDS011;73535;52.500;13.482;2024-01-15T12:07:26;3.00;;;1.50;;
83562;SDS011;73535;52.500;13.482;2024-01-15T12:09:51;4.88;;;1.88;;
83562;SDS011;73535;52.500;13.482;2024-01-15T12:12:24;4.63;;;1.95;;
83562;SDS011;73535;52.500;13.482;2024-01-15T12:14:57;3.67;;;1.42;;
83562;SDS011;73535;52.500;13.482;2024-01-15T12:17:23;5.55;;;1.77;;
83562;SDS011;73535;52.500;13.482;2024-01-15T12:19:48;2.83;;;1.50;;
83562;SDS011;73535;52.500;13.482;2024-01-15T12:22:13;4.70;;;1.70;;
83562;SDS011;73535;52.500;13.482;2024-01-15T12:24:40;2.63;;;1.60;;
83562;SDS011;73535;52.500;13.482;2024-01-15T12:27:05;2.95;;;1.50;;
83562;SDS011;73535;52.500;13.482;2024-01-15T12:29:32;2.67;;;1.60;;
83562;SDS011;73535;52.500;13.482;2024-01-15T12:31:57;2.10;;;1.17;;
83562;SDS011;73535;52.500;13.482;2024-01-15T12:34:22;2.95;;;1.52;;
83562;SDS011;73535;52.500;13.482;2024-01-15T12:36:47;2.20;;;1.40;;
83562;SDS011;73535;52.500;13.482;2024-01-15T12:39:13;1.88;;;1.42;;
83562;SDS011;73535;52.500;13.482;2024-01-15T12:41:38;3.33;;;1.45;;
83562;SDS011;73535;52.500;13.482;2024-01-15T12:44:04;3.13;;;1.40;;
83562;SDS011;73535;52.500;13.482;2024-01-15T12:46:29;1.95;;;1.20;;
83562;SDS011;73535;52.500;13.482;2024-01-15T12:48:55;3.40;;;1.38;;
83562;SDS011;73535;52.500;13.482;2024-01-15T12:51:24;3.17;;;1.20;;
83562;SDS011;73535;52.500;13.482;2024-01-15T12:53:50;4.18;;;1.75;;
83562;SDS011;73535;52.500;13.482;2024-01-15T12:56:16;3.17;;;1.25;;
83562;SDS011;73535;52.500;13.482;2024-01-15T12:58:41;2.95;;;1.30;;
83562;SDS011;73535;52.500;13.482;2024-01-15T13:01:06;2.58;;;1.40;;
83562;SDS011;73535;52.500;13.482;2024-01-15T13:03:31;3.47;;;1.75;;
83562;SDS011;73535;52.500;13.482;2024-01-15T13:05:57;2.90;;;1.50;;
83562;SDS011;73535;52.500;13.482;2024-01-15T13:08:22;2.05;;;1.73;;
83562;SDS011;73535;52.500;13.482;2024-01-15T13:10:50;2.45;;;1.80;;
83562;SDS011;73535;52.500;13.482;2024-01-15T13:13:17;2.10;;;1.67;;
83562;SDS011;73535;52.500;13.482;2024-01-15T13:15:42;3.70;;;1.70;;
83562;SDS011;73535;52.500;13.482;2024-01-15T13:18:07;4.00;;;1.55;;
83562;SDS011;73535;52.500;13.482;2024-01-15T13:20:33;2.78;;;1.35;;
83562;SDS011;73535;52.500;13.482;2024-01-15T13:22:58;3.13;;;1.45;;
83562;SDS011;73535;52.500;13.482;2024-01-15T13:25:23;3.55;;;1.30;;
83562;SDS011;73535;52.500;13.482;2024-01-15T13:27:49;2.53;;;1.45;;
83562;SDS011;73535;52.500;13.482;2024-01-15T13:30:15;2.58;;;1.20;;
83562;SDS011;73535;52.500;13.482;2024-01-15T13:32:40;2.70;;;1.60;;
83562;SDS011;73535;52.500;13.482;2024-01-15T13:35:06;2.13;;;1.35;;
83562;SDS011;73535;52.500;13.482;2024-01-15T13:37:34;3.55;;;1.35;;
83562;SDS011;73535;52.500;13.482;2024-01-15T13:40:00;1.65;;;1.00;;
83562;SDS011;73535;52.500;13.482;2024-01-15T13:42:25;4.90;;;1.55;;
83562;SDS011;73535;52.500;13.482;2024-01-15T13:44:52;2.20;;;1.02;;
83562;SDS011;73535;52.500;13.482;2024-01-15T13:47:17;3.53;;;1.63;;
83562;SDS011;73535;52.500;13.482;2024-01-15T13:49:42;3.25;;;1.20;;
83562;SDS011;73535;52.500;13.482;2024-01-15T13:52:08;3.53;;;1.50;;
83562;SDS011;73535;52.500;13.482;2024-01-15T13:54:33;2.63;;;1.73;;
83562;SDS011;73535;52.500;13.482;2024-01-15T13:56:58;1.58;;;1.02;;
83562;SDS011;73535;52.500;13.482;2024-01-15T13:59:24;2.72;;;1.55;;
83562;SDS011;73535;52.500;13.482;2024-01-15T14:01:49;3.88;;;1.63;;
83562;SDS011;73535;52.500;13.482;2024-01-15T14:04:14;2.78;;;1.27;;
83562;SDS011;73535;52.500;13.482;2024-01-15T14:06:40;3.30;;;1.30;;
83562;SDS011;73535;52.500;13.482;2024-01-15T14:09:05;3.38;;;1.40;;
83562;SDS011;73535;52.500;13.482;2024-01-15T14:11:34;3.97;;;1.33;;
83562;SDS011;73535;52.500;13.482;2024-01-15T14:14:00;3.72;;;1.67;;
83562;SDS011;73535;52.500;13.482;2024-01-15T14:16:26;4.32;;;0.85;;
83562;SDS011;73535;52.500;13.482;2024-01-15T14:18:51;4.43;;;1.55;;
83562;SDS011;73535;52.500;13.482;2024-01-15T14:21:17;4.35;;;1.50;;
83562;SDS011;73535;52.500;13.482;2024-01-15T14:23:43;3.47;;;1.17;;
83562;SDS011;73535;52.500;13.482;2024-01-15T14:26:08;3.83;;;1.25;;
83562;SDS011;73535;52.500;13.482;2024-01-15T14:28:33;2.65;;;1.27;;
83562;SDS011;73535;52.500;13.482;2024-01-15T14:30:59;4.15;;;2.00;;
83562;SDS011;73535;52.500;13.482;2024-01-15T14:33:25;5.80;;;1.40;;
83562;SDS011;73535;52.500;13.482;2024-01-15T14:35:50;3.25;;;1.40;;